.
WxDataArchive / Data Records for 2015-07-17
2015-07-16 July 2015 2015-07-18

Data Records for Friday, 17 July 2015

Time	Temp	Chill	HIndex	Humid	Dewpt	 Wind 	HiWind	WindDir	Rain 	Barom
-----	----	-----	------	-----	-----	------	------	-------	-----	-----
00:00	68.8	68.8	68.8	76	60.9	0	0	---	0.00	29.901 
00:05	68.9	68.9	68.9	77	61.4	0	0	---	0.00	29.901 
00:10	68.9	68.9	68.9	77	61.4	0	0	---	0.00	29.901 
00:15	68.9	68.9	68.9	77	61.4	0	0	---	0.00	29.892 
00:20	68.9	68.9	68.9	77	61.4	0	0	---	0.00	29.892 
00:25	68.9	68.9	68.9	78	61.7	0	0	---	0.00	29.892 
00:30	68.9	68.9	68.9	78	61.7	0	0	---	0.00	29.883 
00:35	68.9	68.9	68.9	78	61.7	0	0	---	0.00	29.883 
00:40	68.8	68.8	68.8	78	61.7	0	0	---	0.00	29.883 
00:45	68.8	68.8	68.8	79	62.0	0	0	---	0.00	29.886 
00:50	68.8	68.8	68.8	79	62.0	0	0	---	0.00	29.886 
00:55	68.6	68.6	68.6	80	62.2	0	0	---	0.00	29.886 
01:00	68.6	68.6	68.6	80	62.2	0	0	---	0.00	29.888 
01:05	68.6	68.6	68.6	81	62.5	0	0	---	0.00	29.888 
01:10	68.6	68.6	68.6	81	62.5	0	0	---	0.00	29.888 
01:15	68.6	68.6	68.6	81	62.5	0	0	---	0.00	29.881 
01:20	68.6	68.6	68.6	81	62.5	0	0	---	0.00	29.881 
01:25	68.8	68.8	68.8	81	62.7	0	0	---	0.00	29.881 
01:30	68.8	68.8	68.8	81	62.7	0	0	---	0.00	29.875 
01:35	68.9	68.9	68.9	82	63.2	0	0	---	0.00	29.875 
01:40	68.9	68.9	68.9	82	63.2	0	1	90	0.00	29.875 
01:45	68.9	68.9	68.9	82	63.2	0	0	---	0.00	29.863 
01:50	68.9	68.9	68.9	82	63.2	0	0	---	0.00	29.863 
01:55	69.1	69.1	69.1	82	63.4	0	0	---	0.00	29.863 
02:00	69.1	69.1	69.1	82	63.4	0	0	---	0.00	29.861 
02:05	69.1	69.1	69.1	83	63.7	0	1	90	0.00	29.861 
02:10	69.1	69.1	69.1	83	63.7	0	1	90	0.00	29.861 
02:15	69.1	69.1	69.1	83	63.7	0	1	90	0.00	29.859 
02:20	69.3	69.3	69.3	83	63.9	0	0	---	0.00	29.859 
02:25	69.1	69.1	69.1	84	64.1	0	0	---	0.00	29.859 
02:30	69.1	69.1	69.1	84	64.1	0	0	---	0.00	29.858 
02:35	69.1	69.1	69.1	85	64.4	0	1	90	0.00	29.858 
02:40	69.1	69.1	69.1	85	64.4	0	1	90	0.00	29.858 
02:45	68.9	68.9	68.9	85	64.2	0	2	90	0.00	29.850 
02:50	68.9	68.9	68.9	85	64.2	0	0	---	0.00	29.850 
02:55	68.9	68.9	68.9	85	64.2	0	0	---	0.00	29.850 
03:00	68.8	68.8	68.8	85	64.1	0	0	---	0.00	29.845 
03:05	68.8	68.8	68.8	86	64.4	0	1	90	0.00	29.845 
03:10	68.8	68.8	68.8	86	64.4	0	1	90	0.00	29.845 
03:15	68.8	68.8	68.8	86	64.4	0	1	90	0.00	29.842 
03:20	68.8	68.8	68.8	86	64.4	0	0	---	0.00	29.842 
03:25	68.8	68.8	68.8	86	64.4	0	0	---	0.00	29.842 
03:30	68.8	68.8	68.8	87	64.8	0	0	---	0.00	29.836 
03:35	68.8	68.8	68.8	87	64.8	0	0	---	0.00	29.836 
03:40	68.8	68.8	68.8	87	64.8	0	0	---	0.00	29.836 
03:45	68.8	68.8	68.8	87	64.8	0	0	---	0.00	29.827 
03:50	68.8	68.8	68.8	88	65.1	0	0	---	0.00	29.827 
03:55	68.8	68.8	68.8	88	65.1	0	0	---	0.00	29.827 
04:00	68.9	68.9	68.9	88	65.2	0	0	---	0.00	29.826 
04:05	68.9	68.9	68.9	88	65.2	0	1	90	0.00	29.826 
04:10	69.1	69.1	69.1	88	65.4	0	1	90	0.00	29.826 
04:15	69.3	69.3	69.3	88	65.6	0	2	90	0.00	29.812 
04:20	69.4	69.4	69.4	88	65.7	0	2	90	0.00	29.812 
04:25	69.4	69.4	69.4	88	65.7	0	0	---	0.00	29.812 
04:30	69.8	69.8	69.8	88	66.1	0	1	90	0.00	29.810 
04:35	69.9	69.9	69.9	88	66.2	0	0	---	0.00	29.810 
04:40	70.1	70.1	70.1	88	66.4	0	1	90	0.00	29.810 
04:45	70.1	70.1	70.1	88	66.4	0	0	---	0.00	29.810 
04:50	70.3	70.3	70.3	88	66.6	0	1	90	0.00	29.810 
04:55	70.3	70.3	70.3	88	66.6	0	1	90	0.00	29.810 
05:00	70.3	70.3	70.3	88	66.6	0	1	90	0.00	29.820 
05:05	70.4	70.4	70.4	88	66.7	0	1	90	0.00	29.820 
05:10	70.4	70.4	70.4	88	66.7	0	0	---	0.01	29.820 
05:15	70.4	70.4	70.4	88	66.7	0	1	90	0.01	29.826 
05:20	70.3	70.3	70.3	89	66.9	0	1	90	0.01	29.826 
05:25	70.3	70.3	70.3	89	66.9	0	2	90	0.01	29.826 
05:30	70.1	70.1	70.1	90	67.0	0	1	90	0.00	29.813 
05:35	70.1	70.1	70.1	90	67.0	0	0	---	0.01	29.813 
05:40	70.1	70.1	70.1	91	67.3	0	1	90	0.00	29.813 
05:45	70.1	70.1	70.1	91	67.3	0	0	---	0.01	29.817 
05:50	70.1	70.1	70.1	92	67.7	0	1	90	0.00	29.817 
05:55	70.1	70.1	70.1	92	67.7	0	1	90	0.00	29.817 
06:00	70.1	70.1	70.1	92	67.7	0	1	90	0.00	29.812 
06:05	70.1	70.1	70.1	92	67.7	0	1	90	0.01	29.812 
06:10	70.1	70.1	70.1	92	67.7	0	0	---	0.00	29.812 
06:15	70.1	70.1	70.1	93	68.0	0	1	90	0.00	29.807 
06:20	70.1	70.1	70.1	93	68.0	0	1	90	0.00	29.807 
06:25	70.1	70.1	70.1	93	68.0	0	0	---	0.00	29.807 
06:30	70.1	70.1	70.1	93	68.0	0	1	90	0.00	29.806 
06:35	70.1	70.1	70.1	93	68.0	0	0	---	0.00	29.806 
06:40	70.1	70.1	70.1	93	68.0	0	0	---	0.00	29.806 
06:45	70.1	70.1	70.1	93	68.0	0	1	90	0.01	29.797 
06:50	70.1	70.1	70.1	94	68.3	0	1	90	0.00	29.797 
06:55	70.3	70.3	70.3	94	68.5	0	2	90	0.00	29.797 
07:00	70.3	70.3	70.3	94	68.5	0	0	---	0.02	29.799 
07:05	70.4	70.4	70.4	94	68.6	0	1	90	0.00	29.799 
07:10	70.6	70.6	70.6	94	68.8	0	1	90	0.00	29.799 
07:15	70.6	70.6	70.6	94	68.8	0	1	90	0.00	29.804 
07:20	70.6	70.6	70.6	94	68.8	0	1	90	0.00	29.804 
07:25	70.8	70.8	70.8	94	69.0	0	1	90	0.00	29.804 
07:30	70.8	70.8	70.8	94	69.0	0	1	90	0.00	29.795 
07:35	70.9	70.9	70.9	94	69.1	0	1	90	0.00	29.795 
07:40	70.9	70.9	70.9	94	69.1	0	1	90	0.00	29.795 
07:45	70.9	70.9	70.9	94	69.1	0	1	90	0.15	29.804 
07:50	70.9	70.9	70.9	94	69.1	0	1	90	0.04	29.804 
07:55	70.8	70.8	70.8	94	69.0	0	1	90	0.01	29.804 
08:00	70.8	70.8	70.8	94	69.0	0	1	90	0.00	29.799 
08:05	70.8	70.8	70.8	95	69.3	0	1	90	0.00	29.799 
08:10	70.9	70.9	70.9	95	69.4	0	2	90	0.00	29.799 
08:15	70.9	70.9	70.9	95	69.4	0	1	90	0.00	29.798 
08:20	71.1	71.1	71.1	95	69.6	0	1	90	0.00	29.798 
08:25	71.1	71.1	71.1	95	69.6	0	2	90	0.00	29.798 
08:30	71.3	71.3	71.3	95	69.8	0	2	90	0.00	29.803 
08:35	71.3	71.3	71.3	95	69.8	0	0	---	0.00	29.803 
08:40	71.3	71.3	71.3	95	69.8	0	1	90	0.00	29.803 
08:45	71.3	71.3	71.3	95	69.8	0	1	90	0.00	29.805 
08:50	71.5	71.5	71.5	95	70.0	0	1	90	0.00	29.805 
08:55	71.5	71.5	71.5	95	70.0	0	1	90	0.00	29.805 
09:00	71.6	71.6	71.6	95	70.1	0	1	90	0.00	29.806 
09:05	72.0	72.0	72.0	95	70.5	0	2	90	0.00	29.806 
09:10	72.3	72.3	72.3	95	70.8	0	1	90	0.00	29.806 
09:15	72.8	72.8	72.8	95	71.3	0	1	90	0.00	29.808 
09:20	73.0	73.0	73.0	95	71.5	0	1	90	0.00	29.808 
09:25	72.8	72.8	72.8	94	71.0	0	2	90	0.00	29.808 
09:30	72.7	72.7	72.7	94	70.9	0	2	90	0.00	29.810 
09:35	72.5	72.5	72.5	94	70.7	0	3	90	0.00	29.810 
09:40	72.7	72.7	72.7	94	70.9	0	2	90	0.00	29.810 
09:45	73.0	73.0	73.0	95	71.5	0	2	90	0.00	29.804 
09:50	73.7	73.7	73.7	94	71.9	0	4	90	0.00	29.804 
09:55	74.2	74.2	74.2	94	72.4	0	2	90	0.00	29.804 
10:00	74.6	74.6	74.6	93	72.4	0	3	68	0.00	29.806 
10:05	75.1	75.1	73.8	93	72.9	0	3	270	0.00	29.806 
10:10	74.9	74.9	74.9	92	72.4	0	4	292	0.00	29.806 
10:15	75.1	75.1	73.9	92	72.6	0	1	292	0.00	29.797 
10:20	75.8	75.8	75.5	91	73.0	0	3	292	0.00	29.797 
10:25	76.1	76.1	76.3	90	72.9	0	3	112	0.00	29.797 
10:30	76.5	76.5	77.2	89	73.0	0	2	112	0.00	29.798 
10:35	76.8	76.8	77.9	88	73.0	1	3	112	0.00	29.798 
10:40	77.4	77.4	79.1	87	73.2	0	2	112	0.00	29.798 
10:45	77.7	77.7	79.8	86	73.2	0	2	112	0.00	29.797 
10:50	78.3	78.3	81.0	85	73.4	0	1	112	0.00	29.797 
10:55	78.6	78.6	81.7	85	73.7	0	2	315	0.00	29.797 
11:00	79.0	79.0	82.4	83	73.4	0	3	315	0.00	29.793 
11:05	79.2	79.2	82.9	83	73.6	0	1	315	0.00	29.793 
11:10	79.4	79.4	83.3	83	73.8	0	1	315	0.00	29.793 
11:15	79.6	79.6	83.6	82	73.6	0	1	315	0.00	29.787 
11:20	79.8	79.8	84.1	82	73.8	0	2	315	0.00	29.787 
11:25	80.1	80.1	84.7	82	74.1	0	1	315	0.00	29.787 
11:30	80.3	80.3	85.0	81	73.9	0	2	315	0.00	29.788 
11:35	80.3	80.3	84.9	80	73.5	0	2	315	0.00	29.788 
11:40	80.1	80.1	84.4	80	73.4	0	1	315	0.00	29.788 
11:45	80.1	80.1	84.6	81	73.7	0	1	338	0.00	29.786 
11:50	80.5	80.5	85.5	81	74.1	0	2	338	0.00	29.786 
11:55	80.9	80.9	86.4	81	74.5	0	3	338	0.00	29.786 
12:00	80.9	80.9	86.0	79	73.8	1	3	338	0.00	29.786 
12:05	80.9	80.9	86.0	79	73.8	1	3	315	0.00	29.786 
12:10	80.9	80.9	86.2	80	74.1	0	3	315	0.00	29.786 
12:15	81.1	81.1	86.5	79	73.9	1	2	315	0.00	29.786 
12:20	81.2	81.2	86.7	79	74.0	0	2	315	0.00	29.786 
12:25	81.4	81.4	87.1	79	74.2	0	2	315	0.00	29.786 
12:30	81.6	81.6	87.6	79	74.4	0	2	315	0.00	29.789 
12:35	82.0	82.0	88.5	79	74.8	0	2	270	0.00	29.789 
12:40	82.4	82.4	89.2	78	74.8	0	2	270	0.00	29.789 
12:45	82.8	82.8	89.9	77	74.8	0	2	270	0.00	29.786 
12:50	82.6	82.6	89.4	77	74.6	1	3	270	0.00	29.786 
12:55	83.0	83.0	90.4	77	75.0	0	2	270	0.00	29.786 
13:00	83.0	83.0	90.1	76	74.6	1	4	270	0.00	29.787 
13:05	82.8	82.8	89.6	76	74.4	0	2	270	0.00	29.787 
13:10	82.8	82.8	89.9	77	74.8	1	4	270	0.00	29.787 
13:15	83.0	83.0	90.7	78	75.4	0	2	270	0.00	29.784 
13:20	83.0	83.0	90.4	77	75.0	1	4	270	0.00	29.784 
13:25	83.2	83.2	90.9	77	75.2	0	1	270	0.00	29.784 
13:30	83.2	83.2	90.9	77	75.2	0	1	270	0.00	29.784 
13:35	83.4	83.4	91.4	77	75.4	0	1	270	0.00	29.784 
13:40	84.0	84.0	93.2	78	76.4	0	3	270	0.00	29.784 
13:45	84.7	84.7	93.9	75	75.9	0	2	270	0.00	29.774 
13:50	85.1	85.1	94.1	73	75.4	1	3	270	0.00	29.774 
13:55	85.3	85.3	94.2	72	75.2	1	3	270	0.00	29.774 
14:00	85.3	85.3	94.2	72	75.2	1	3	270	0.00	29.779 
14:05	85.7	85.7	95.2	72	75.6	1	3	270	0.00	29.779 
14:10	86.1	86.1	95.8	71	75.6	0	3	68	0.00	29.779 
14:15	86.5	86.5	96.3	70	75.5	0	2	270	0.00	29.770 
14:20	86.5	86.5	95.4	68	74.7	1	2	270	0.00	29.770 
14:25	86.3	86.3	94.9	68	74.5	0	2	270	0.00	29.770 
14:30	86.3	86.3	95.8	70	75.3	0	2	270	0.00	29.770 
14:35	86.5	86.5	96.3	70	75.5	0	2	270	0.00	29.770 
14:40	86.7	86.7	96.3	69	75.3	1	5	270	0.00	29.770 
14:45	86.5	86.5	95.4	68	74.7	1	3	270	0.00	29.767 
14:50	86.3	86.3	94.9	68	74.5	1	2	270	0.00	29.767 
14:55	86.5	86.5	94.9	67	74.2	1	4	270	0.00	29.767 
15:00	86.5	86.5	94.5	66	73.8	1	2	315	0.00	29.766 
15:05	86.5	86.5	94.5	66	73.8	1	4	315	0.00	29.766 
15:10	86.5	86.5	94.9	67	74.2	1	2	315	0.00	29.766 
15:15	86.7	86.7	96.3	69	75.3	0	2	315	0.00	29.768 
15:20	87.0	87.0	97.1	69	75.6	1	3	338	0.00	29.768 
15:25	87.2	87.2	97.6	69	75.8	1	4	0	0.00	29.768 
15:30	87.8	87.8	98.1	67	75.4	0	3	338	0.00	29.767 
15:35	88.0	88.0	99.1	68	76.1	1	4	270	0.00	29.767 
15:40	88.0	88.0	98.6	67	75.6	0	3	270	0.00	29.767 
15:45	88.4	88.4	100.2	68	76.5	1	4	0	0.00	29.765 
15:50	88.4	88.4	98.0	64	74.6	1	3	315	0.00	29.765 
15:55	88.4	88.4	98.5	65	75.1	1	4	292	0.00	29.765 
16:00	88.6	88.6	99.6	66	75.7	0	3	292	0.00	29.764 
16:05	88.6	88.6	98.5	64	74.8	1	3	292	0.00	29.764 
16:10	88.4	88.4	97.5	63	74.2	1	3	292	0.00	29.764 
16:15	88.2	88.2	97.5	64	74.4	0	3	292	0.00	29.761 
16:20	88.4	88.4	98.5	65	75.1	0	4	270	0.00	29.761 
16:25	88.4	88.4	98.5	65	75.1	0	3	270	0.00	29.761 
16:30	88.4	88.4	98.0	64	74.6	0	2	270	0.00	29.761 
16:35	88.4	88.4	98.0	64	74.6	0	2	270	0.00	29.761 
16:40	88.4	88.4	98.0	64	74.6	1	3	270	0.00	29.761 
16:45	88.4	88.4	98.0	64	74.6	0	1	270	0.00	29.759 
16:50	88.0	88.0	97.6	65	74.7	0	2	270	0.00	29.759 
16:55	88.2	88.2	98.0	65	74.9	1	4	270	0.00	29.759 
17:00	88.0	88.0	98.1	66	75.2	0	2	270	0.00	29.753 
17:05	87.8	87.8	98.1	67	75.4	0	3	270	0.00	29.753 
17:10	87.4	87.4	97.1	67	75.1	1	2	270	0.00	29.753 
17:15	86.7	86.7	95.9	68	74.8	0	2	270	0.00	29.756 
17:20	86.5	86.5	95.4	68	74.7	0	1	338	0.00	29.756 
17:25	86.1	86.1	94.9	69	74.7	0	2	338	0.00	29.756 
17:30	85.9	85.9	94.4	69	74.5	0	2	315	0.00	29.758 
17:35	85.9	85.9	94.4	69	74.5	0	4	315	0.00	29.758 
17:40	85.7	85.7	93.9	69	74.3	1	4	315	0.00	29.758 
17:45	85.5	85.5	93.9	70	74.6	0	3	292	0.00	29.756 
17:50	85.3	85.3	93.8	71	74.8	0	3	270	0.00	29.756 
17:55	85.1	85.1	93.7	72	75.0	0	2	270	0.00	29.756 
18:00	84.9	84.9	93.2	72	74.8	0	3	270	0.00	29.754 
18:05	84.7	84.7	92.8	72	74.6	0	2	248	0.00	29.754 
18:10	84.5	84.5	92.6	73	74.9	0	2	248	0.00	29.754 
18:15	84.5	84.5	92.6	73	74.9	1	6	270	0.00	29.738 
18:20	84.3	84.3	92.2	73	74.7	1	4	270	0.00	29.738 
18:25	84.3	84.3	92.5	74	75.1	0	3	292	0.00	29.738 
18:30	84.1	84.1	92.4	75	75.3	0	2	292	0.00	29.769 
18:35	84.0	84.0	92.2	75	75.2	0	2	338	0.00	29.769 
18:40	84.0	84.0	92.5	76	75.6	0	2	338	0.00	29.769 
18:45	83.8	83.8	92.0	76	75.4	0	4	338	0.00	29.782 
18:50	84.0	84.0	92.5	76	75.6	0	1	292	0.00	29.782 
18:55	84.0	84.0	92.2	75	75.2	1	4	292	0.00	29.782 
19:00	83.8	83.8	91.3	74	74.6	1	4	292	0.00	29.767 
19:05	83.6	83.6	90.9	74	74.4	0	3	338	0.00	29.767 
19:10	83.6	83.6	91.2	75	74.8	0	3	338	0.00	29.767 
19:15	83.4	83.4	90.4	74	74.2	1	5	292	0.00	29.783 
19:20	83.4	83.4	90.7	75	74.6	0	2	292	0.00	29.783 
19:25	83.2	83.2	90.3	75	74.4	0	2	292	0.00	29.783 
19:30	83.2	83.2	90.0	74	74.0	1	5	292	0.00	29.784 
19:35	83.0	83.0	89.5	74	73.8	2	5	292	0.00	29.784 
19:40	82.2	82.2	86.4	68	70.6	1	4	315	0.00	29.784 
19:45	81.1	81.1	84.1	66	68.6	1	4	315	0.00	29.801 
19:50	80.1	80.1	82.7	67	68.1	1	3	315	0.00	29.801 
19:55	79.4	79.4	81.8	68	67.9	1	3	315	0.00	29.801 
20:00	79.0	79.0	81.3	69	67.9	0	0	---	0.00	29.802 
20:05	78.6	78.6	80.8	69	67.6	0	1	315	0.00	29.802 
20:10	78.5	78.5	80.7	70	67.9	0	1	315	0.00	29.802 
20:15	78.3	78.3	80.5	72	68.5	0	1	315	0.00	29.788 
20:20	78.1	78.1	80.2	72	68.3	0	1	315	0.00	29.788 
20:25	78.1	78.1	80.3	74	69.1	0	0	---	0.00	29.788 
20:30	77.9	77.9	80.0	75	69.3	0	1	315	0.00	29.785 
20:35	77.9	77.9	80.0	76	69.7	0	1	315	0.00	29.785 
20:40	77.9	77.9	80.0	76	69.7	0	0	---	0.00	29.785 
20:45	77.7	77.7	79.7	77	69.9	0	1	315	0.00	29.788 
20:50	77.7	77.7	79.7	77	69.9	0	1	315	0.00	29.788 
20:55	77.7	77.7	79.7	78	70.3	0	1	315	0.00	29.788 
21:00	77.9	77.9	80.1	77	70.1	1	4	292	0.00	29.784 
21:05	78.1	78.1	80.4	77	70.3	0	2	292	0.00	29.784 
21:10	78.3	78.3	80.7	76	70.1	0	1	292	0.00	29.784 
21:15	78.3	78.3	80.7	76	70.1	0	1	292	0.00	29.769 
21:20	78.1	78.1	80.4	76	69.9	0	1	292	0.00	29.769 
21:25	78.1	78.1	80.4	76	69.9	0	1	292	0.00	29.769 
21:30	77.9	77.9	80.1	77	70.1	0	0	---	0.00	29.761 
21:35	77.7	77.7	79.7	77	69.9	0	0	---	0.00	29.761 
21:40	77.6	77.6	79.6	77	69.8	0	0	---	0.00	29.761 
21:45	77.4	77.4	79.3	77	69.6	0	1	292	0.00	29.766 
21:50	77.2	77.2	78.9	78	69.8	0	0	---	0.00	29.766 
21:55	77.0	77.0	78.7	77	69.2	0	0	---	0.00	29.766 
22:00	76.8	76.8	78.4	76	68.6	0	0	---	0.00	29.791 
22:05	76.8	76.8	78.4	75	68.3	0	0	---	0.00	29.791 
22:10	76.8	76.8	78.4	74	67.9	0	0	---	0.00	29.791 
22:15	76.8	76.8	78.5	73	67.5	0	3	292	0.00	29.808 
22:20	76.7	76.7	78.4	72	67.0	0	2	292	0.00	29.808 
22:25	76.7	76.7	78.4	71	66.6	1	3	292	0.00	29.808 
22:30	76.5	76.5	78.2	71	66.4	0	1	292	0.00	29.803 
22:35	76.5	76.5	78.1	72	66.8	0	1	292	0.00	29.803 
22:40	76.3	76.3	77.9	72	66.6	0	0	---	0.00	29.803 
22:45	76.1	76.1	77.7	72	66.4	0	0	---	0.00	29.800 
22:50	76.0	76.0	77.5	73	66.7	0	0	---	0.00	29.800 
22:55	75.8	75.8	77.2	74	66.9	0	0	---	0.00	29.800 
23:00	75.8	75.8	77.1	75	67.3	0	0	---	0.00	29.801 
23:05	75.4	75.4	76.6	75	66.9	0	0	---	0.00	29.801 
23:10	75.3	75.3	76.5	75	66.8	0	0	---	0.00	29.801 
23:15	75.1	75.1	76.2	76	67.0	0	0	---	0.00	29.785 
23:20	74.9	74.9	74.9	76	66.8	0	0	---	0.00	29.785 
23:25	74.7	74.7	74.7	76	66.6	0	1	292	0.00	29.785 
23:30	74.7	74.7	74.7	76	66.6	0	1	292	0.00	29.768 
23:35	74.7	74.7	74.7	76	66.6	0	2	292	0.00	29.768 
23:40	74.7	74.7	74.7	76	66.6	0	3	292	0.00	29.768 
23:45	74.6	74.6	74.6	77	66.9	0	3	248	0.00	29.759 
23:50	74.4	74.4	74.4	77	66.7	0	3	248	0.00	29.759 
23:55	74.4	74.4	74.4	77	66.7	0	2	0	0.00	29.759 

CoCoRaHS
IN-AL-39
A2 Web Hosting
Creative Commons License
GoDaddy
search engine by freefind advanced

loaded 2018-11-13 02:27:46 • last modified 2010-11-18 10:43:29
Privacy PolicyDisclaimer
• wx.awcolley.com is powered by PmWiki v.2002016 •
• all content (unless otherwise noted) © 2018 A W Colley